DW0866 Weather Reports


Display with metric or nautical units.
time (UTC)temp
F
wind
direction
speed
MPH
gust
MPH
rain 1hr
in
rain 24hr
in
rain mn
in
humidity
%
barometer
mb
20200714022839 58 321 2.0 5.0 0.00 0.00 0.00 81 1014.9
20200714022340 58 62 2.0 7.0 0.00 0.00 0.00 80 1014.9
20200714021856 58 360 4.0 7.0 0.00 0.00 0.00 80 1014.9
20200714021328 59 39 3.0 5.0 0.00 0.00 0.00 80 1014.9
20200714020833 59 313 1.0 4.0 0.00 0.00 0.00 80 1015.0
20200714020329 59 57 2.0 4.0 0.00 0.00 0.00 79 1015.0
20200714015829 59 360 2.0 4.0 0.00 0.00 0.00 79 1015.0
20200714015333 60 360 2.0 5.0 0.00 0.00 0.00 79 1014.8
20200714014848 60 346 3.0 5.0 0.00 0.00 0.00 78 1015.0
20200714014342 60 340 3.0 5.0 0.00 0.00 0.00 78 1014.9
20200714013833 60 17 2.0 5.0 0.00 0.00 0.00 78 1014.9
20200714013337 61 360 2.0 5.0 0.00 0.00 0.00 77 1014.8
20200714012836 61 28 2.0 6.0 0.00 0.00 0.00 76 1014.8
20200714012334 61 355 2.0 8.0 0.00 0.00 0.00 76 1014.8
20200714011849 62 47 3.0 8.0 0.00 0.00 0.00 75 1014.9
20200714011340 62 34 3.0 6.0 0.00 0.00 0.00 75 1014.9
20200714010839 62 10 2.0 5.0 0.00 0.00 0.00 76 1014.9
20200714010340 62 348 2.0 6.0 0.00 0.00 0.00 75 1014.9
20200714005837 62 360 3.0 8.0 0.00 0.00 0.00 75 1015.0
20200714005340 62 351 3.0 9.0 0.00 0.00 0.00 75 1015.0
20200714004835 62 340 4.0 9.0 0.00 0.00 0.00 75 1015.1
20200714004336 62 71 4.0 9.0 0.00 0.00 0.00 74 1015.1
20200714003854 62 41 4.0 9.0 0.00 0.00 0.00 75 1015.2
20200714003344 62 343 5.0 9.0 0.00 0.00 0.00 74 1015.3
20200714002839 62 360 4.0 9.0 0.00 0.00 0.00 74 1015.3
20200714002339 62 37 5.0 9.0 0.00 0.00 0.00 74 1015.3
20200714001854 62 351 5.0 9.0 0.00 0.00 0.00 75 1015.3
20200714001348 62 360 4.0 10.0 0.00 0.00 0.00 75 1015.3
20200714000836 62 16 4.0 11.0 0.00 0.00 0.00 74 1015.3
20200714000336 62 9 5.0 11.0 0.00 0.00 0.00 74 1015.4
20200713235839 62 360 5.0 11.0 0.00 0.00 0.00 74 1015.5
20200713235337 62 32 4.0 10.0 0.00 0.00 0.00 74 1015.4
20200713235228 62 17 5.0 10.0 0.00 0.00 0.00 74 1015.6
20200713235156 63 17 4.0 10.0 0.00 0.00 0.00 74 1015.6
20200713233832 63 40 5.0 10.0 0.00 0.00 0.00 74 1015.6
20200713233355 63 15 5.0 10.0 0.00 0.00 0.00 75 1015.7
20200713232846 62 16 5.0 10.0 0.00 0.00 0.00 74 1015.7
20200713232338 63 330 5.0 10.0 0.00 0.00 0.00 75 1015.7
20200713231837 62 351 5.0 10.0 0.00 0.00 0.00 74 1015.7
20200713231338 63 27 5.0 10.0 0.00 0.00 0.00 75 1015.6
20200713230837 63 25 5.0 10.0 0.00 0.00 0.00 74 1015.6
20200713230337 63 56 4.0 11.0 0.00 0.00 0.00 74 1015.6
20200713225837 63 12 5.0 12.0 0.00 0.00 0.00 74 1015.6
20200713225339 63 16 5.0 12.0 0.00 0.00 0.00 74 1015.6
20200713224837 63 45 5.0 11.0 0.00 0.00 0.00 74 1015.5
20200713224357 63 30 5.0 11.0 0.00 0.00 0.00 75 1015.6
20200713223845 63 20 3.0 8.0 0.00 0.00 0.00 76 1015.5
20200713223334 63 17 5.0 11.0 0.00 0.00 0.00 76 1015.5
20200713222831 62 360 3.0 11.0 0.00 0.00 0.00 77 1015.5
20200713222333 63 355 3.0 13.0 0.00 0.00 0.00 76 1015.5
20200713221849 63 298 5.0 13.0 0.00 0.00 0.00 75 1015.6
20200713221344 63 347 4.0 13.0 0.00 0.00 0.00 76 1015.5
20200713220837 63 328 4.0 11.0 0.00 0.00 0.00 76 1015.5
20200713220410 63 337 4.0 9.0 0.00 0.00 0.00 77 1015.4
20200713215810 63 198 3.0 10.0 0.00 0.00 0.00 76 1015.3
20200713214937 63 346 3.0 10.0 0.00 0.00 0.00 76 1015.4
20200713214341 63 345 1.0 6.0 0.00 0.00 0.00 78 1015.3
20200713213833 62 360 4.0 11.0 0.00 0.00 0.00 77 1015.4
20200713213353 62 34 4.0 11.0 0.00 0.00 0.00 76 1015.4
20200713212843 63 9 4.0 10.0 0.00 0.00 0.00 76 1015.3
20200713212343 63 56 3.0 9.0 0.00 0.00 0.00 76 1015.3
20200713211837 63 40 3.0 11.0 0.00 0.00 0.00 78 1015.3
20200713211356 63 360 4.0 11.0 0.00 0.00 0.00 75 1015.2
20200713210844 63 15 2.0 9.0 0.00 0.00 0.00 77 1015.4
20200713210342 63 346 3.0 11.0 0.00 0.00 0.00 76 1015.4
20200713205836 63 27 3.0 11.0 0.00 0.00 0.00 79 1015.3
20200713205335 62 360 3.0 11.0 0.00 0.00 0.00 78 1015.2
20200713204835 62 321 5.0 11.0 0.00 0.00 0.00 77 1015.2
20200713204338 62 360 5.0 11.0 0.00 0.00 0.00 77 1015.2
20200713203840 62 351 2.0 10.0 0.00 0.00 0.00 78 1015.1
20200713203355 62 59 4.0 12.0 0.00 0.00 0.00 78 1015.2
20200713202844 62 360 7.0 12.0 0.00 0.00 0.00 77 1015.2
20200713202336 62 24 4.0 10.0 0.00 0.00 0.00 78 1015.3
20200713201836 62 348 4.0 11.0 0.00 0.00 0.00 78 1015.3
20200713201333 62 360 5.0 11.0 0.00 0.00 0.00 79 1015.2
20200713200831 61 328 4.0 11.0 0.00 0.00 0.00 79 1015.3
20200713200330 61 26 5.0 13.0 0.00 0.00 0.00 79 1015.1
20200713195848 61 311 6.0 13.0 0.00 0.00 0.00 79 1015.2
20200713195341 61 360 6.0 14.0 0.00 0.00 0.00 79 1015.1
20200713194837 61 309 7.0 14.0 0.00 0.00 0.00 78 1015.2
20200713194339 62 288 3.0 13.0 0.00 0.00 0.00 80 1015.2
20200713193839 62 225 5.0 12.0 0.00 0.00 0.00 80 1015.3
20200713193338 61 25 3.0 11.0 0.00 0.00 0.00 80 1015.2
20200713192835 62 301 4.0 11.0 0.00 0.00 0.00 79 1015.2
20200713192339 62 17 3.0 8.0 0.00 0.00 0.00 82 1015.2
20200713191836 62 5 4.0 8.0 0.00 0.00 0.00 81 1015.2
20200713191337 62 339 2.0 7.0 0.00 0.00 0.00 82 1014.9
20200713190840 61 15 1.0 5.0 0.00 0.00 0.00 82 1015.0
20200713190343 62 133 2.0 6.0 0.00 0.00 0.00 81 1014.9
20200713185836 62 189 1.0 5.0 0.00 0.00 0.00 81 1014.9
20200713185341 62 330 2.0 5.0 0.00 0.00 0.00 81 1014.9
20200713184839 62 293 0.0 5.0 0.00 0.00 0.00 80 1014.9
20200713184341 62 96 2.0 7.0 0.00 0.00 0.00 80 1014.9
20200713183842 63 360 3.0 7.0 0.00 0.00 0.00 79 1014.8
20200713183342 63 202 2.0 9.0 0.00 0.00 0.00 80 1014.8
20200713182839 62 360 2.0 9.0 0.00 0.00 0.00 80 1014.9
20200713182355 62 341 2.0 8.0 0.00 0.00 0.00 82 1014.8
20200713181336 62 215 1.0 5.0 0.00 0.00 0.00 81 1014.7
20200713180854 62 346 2.0 5.0 0.00 0.00 0.00 82 1014.6
20200713180342 61 159 1.0 5.0 0.00 0.00 0.00 83 1014.6
20200713175832 61 238 1.0 5.0 0.00 0.00 0.00 83 1014.6
20200713175352 61 266 1.0 5.0 0.00 0.00 0.00 84 1014.5
20200713174842 60 36 1.0 4.0 0.00 0.00 0.00 85 1014.5
20200713174339 59 230 1.0 4.0 0.00 0.00 0.00 85 1014.5
20200713173856 58 229 1.0 4.0 0.00 0.00 0.00 85 1014.5
20200713173340 58 282 1.0 4.0 0.00 0.00 0.00 86 1014.5
20200713172838 58 293 0.0 5.0 0.00 0.00 0.00 86 1014.6
20200713172338 57 17 3.0 5.0 0.00 0.00 0.00 86 1014.6
20200713171845 57 351 2.0 5.0 0.00 0.00 0.00 87 1014.6
20200713171334 57 267 1.0 3.0 0.00 0.00 0.00 87 1014.7
20200713170834 57 9 1.0 3.0 0.00 0.00 0.00 86 1014.7
20200713170350 57 293 1.0 4.0 0.00 0.00 0.00 87 1014.7
20200713165838 57 342 2.0 5.0 0.00 0.00 0.00 88 1014.7
20200713165339 56 223 2.0 5.0 0.00 0.00 0.00 88 1014.7
20200713164838 56 273 1.0 5.0 0.00 0.00 0.00 88 1014.7
20200713164340 56 9 1.0 5.0 0.00 0.00 0.00 88 1014.7
20200713163837 56 265 1.0 4.0 0.00 0.00 0.00 88 1014.7
20200713163352 56 319 1.0 3.0 0.00 0.00 0.00 88 1014.7
20200713162841 56 28 1.0 3.0 0.00 0.00 0.00 88 1014.7
20200713162336 56 351 1.0 4.0 0.00 0.00 0.00 88 1014.7
20200713161836 56 348 1.0 4.0 0.00 0.00 0.00 88 1014.6
20200713161339 56 23 2.0 4.0 0.00 0.00 0.00 88 1014.7
20200713160835 56 351 1.0 4.0 0.00 0.00 0.00 89 1014.6
20200713160328 56 340 2.0 4.0 0.00 0.00 0.00 89 1014.5
20200713155844 56 333 1.0 3.0 0.00 0.00 0.00 89 1014.6
20200713155347 56 350 1.0 2.0 0.00 0.00 0.00 89 1014.7
20200713154842 56 335 1.0 2.0 0.00 0.00 0.00 89 1014.6
20200713154341 56 223 0.0 2.0 0.00 0.00 0.00 90 1014.5
20200713153842 56 222 0.0 2.0 0.00 0.00 0.00 90 1014.6
20200713153333 55 224 1.0 2.0 0.00 0.00 0.00 90 1014.6
20200713152852 55 243 1.0 2.0 0.00 0.00 0.00 90 1014.6
20200713152345 55 242 1.0 2.0 0.00 0.00 0.00 90 1014.6
20200713151834 55 284 1.0 2.0 0.00 0.00 0.00 90 1014.6
20200713151335 55 360 1.0 2.0 0.00 0.00 0.00 90 1014.5
20200713150830 55 315 0.0 2.0 0.00 0.00 0.00 90 1014.5
20200713150351 55 300 0.0 1.0 0.00 0.00 0.00 90 1014.5
20200713145839 55 360 0.0 1.0 0.00 0.00 0.00 90 1014.5
20200713145344 54 310 0.0 1.0 0.00 0.00 0.00 90 1014.6
20200713144837 54 360 0.0 2.0 0.00 0.00 0.00 90 1014.5
20200713144337 54 315 0.0 2.0 0.00 0.00 0.00 90 1014.5
20200713143835 54 313 0.0 2.0 0.00 0.00 0.00 90 1014.6
20200713143352 54 311 0.0 2.0 0.00 0.00 0.00 90 1014.6
20200713142840 54 360 0.0 3.0 0.00 0.00 0.00 90 1014.7
20200713142341 54 351 1.0 3.0 0.00 0.00 0.00 90 1014.6
20200713141837 54 360 0.0 3.0 0.00 0.00 0.00 90 1014.6
20200713141337 54 259 1.0 3.0 0.00 0.00 0.00 90 1014.6
20200713140840 54 355 0.0 2.0 0.00 0.00 0.00 90 1014.6
20200713140332 54 355 0.0 2.0 0.00 0.00 0.00 90 1014.6
20200713135847 54 223 0.0 2.0 0.00 0.00 0.00 90 1014.6
20200713135342 54 220 0.0 2.0 0.00 0.00 0.00 90 1014.5
20200713134841 54 254 0.0 3.0 0.00 0.00 0.00 90 1014.5
20200713134340 54 254 1.0 3.0 0.00 0.00 0.00 90 1014.5
20200713133834 54 55 0.0 1.0 0.00 0.00 0.00 90 1014.5
20200713133332 54 55 0.0 2.0 0.00 0.00 0.00 90 1014.5
20200713132830 54 55 1.0 2.0 0.00 0.00 0.00 90 1014.3
20200713132330 54 41 1.0 2.0 0.00 0.00 0.00 90 1014.3
20200713131338 54 123 2.0 3.0 0.00 0.00 0.00 90 1014.1
20200713130830 54 126 0.0 2.0 0.00 0.00 0.00 90 1014.2
20200713130352 54 128 0.0 2.0 0.00 0.00 0.00 90 1014.2
20200713125840 54 128 2.0 2.0 0.00 0.00 0.00 90 1014.2
20200713125340 54 117 0.0 0.0 0.00 0.00 0.00 90 1014.0
20200713124840 54 121 0.0 1.0 0.00 0.00 0.00 90 1014.1
20200713124340 54 119 0.0 2.0 0.00 0.00 0.00 90 1014.2
20200713123854 54 117 1.0 2.0 0.00 0.00 0.00 90 1014.1
20200713123352 54 81 0.0 0.0 0.00 0.00 0.00 90 1014.2
20200713122841 54 81 0.0 0.0 0.00 0.00 0.00 90 1014.2
20200713122339 54 81 0.0 1.0 0.00 0.00 0.00 90 1014.1
20200713121836 54 81 0.0 1.0 0.00 0.00 0.00 90 1014.1
20200713121338 54 82 0.0 1.0 0.00 0.00 0.00 90 1014.1
20200713120831 54 82 0.0 1.0 0.00 0.00 0.00 90 1014.1
20200713120351 54 81 0.0 0.0 0.00 0.00 0.00 90 1014.0
20200713115842 54 80 0.0 0.0 0.00 0.00 0.00 90 1013.9
20200713115343 54 81 0.0 0.0 0.00 0.00 0.00 90 1013.9
20200713114843 54 81 0.0 0.0 0.00 0.00 0.00 90 1013.9
20200713114342 54 81 0.0 0.0 0.00 0.00 0.00 90 1013.9
20200713113850 54 82 0.0 0.0 0.00 0.00 0.00 90 1013.8
20200713112834 53 81 0.0 1.0 0.00 0.00 0.00 89 1013.9
20200713112334 53 80 0.0 1.0 0.00 0.00 0.00 89 1013.8
20200713111833 53 81 0.0 1.0 0.00 0.00 0.00 89 1013.9
20200713111350 53 80 0.0 1.0 0.00 0.00 0.00 89 1013.9
20200713110841 53 80 0.0 1.0 0.00 0.00 0.00 89 1013.8
20200713110340 53 79 0.0 1.0 0.00 0.00 0.00 89 1013.9
20200713105837 54 79 0.0 1.0 0.00 0.00 0.00 89 1013.9
20200713105337 54 80 0.0 2.0 0.00 0.00 0.00 88 1013.8
20200713104838 54 79 0.0 2.0 0.00 0.00 0.00 88 1013.7
20200713104332 54 78 0.0 1.0 0.00 0.00 0.00 88 1013.7
20200713103829 54 74 0.0 0.0 0.00 0.00 0.00 88 1013.8
20200713103331 54 74 0.0 1.0 0.00 0.00 0.00 88 1013.7
20200713102841 54 73 0.0 2.0 0.00 0.00 0.00 88 1013.7
20200713102339 54 136 1.0 2.0 0.00 0.00 0.00 87 1013.6
20200713101838 55 137 0.0 3.0 0.00 0.00 0.00 87 1013.8
20200713101333 55 137 1.0 3.0 0.00 0.00 0.00 87 1013.7
20200713100851 55 145 2.0 3.0 0.00 0.00 0.00 87 1013.8
20200713100344 55 132 1.0 2.0 0.00 0.00 0.00 87 1013.8
20200713095839 55 194 0.0 2.0 0.00 0.00 0.00 87 1013.9
20200713095339 55 187 1.0 3.0 0.00 0.00 0.00 87 1014.0
20200713094838 55 175 1.0 3.0 0.00 0.00 0.00 87 1014.1
20200713094333 55 161 0.0 2.0 0.00 0.00 0.00 88 1014.1
20200713093855 55 198 0.0 3.0 0.00 0.00 0.00 88 1014.2
20200713093328 55 206 0.0 2.0 0.00 0.00 0.00 88 1014.3
20200713092838 55 271 0.0 2.0 0.00 0.00 0.00 88 1014.3
20200713092339 55 273 0.0 2.0 0.00 0.00 0.00 88 1014.5
20200713091838 55 181 0.0 3.0 0.00 0.00 0.00 88 1014.5
20200713091337 55 181 1.0 3.0 0.00 0.00 0.00 88 1014.6
20200713090835 55 237 1.0 2.0 0.00 0.00 0.00 88 1014.6
20200713090354 55 256 0.0 3.0 0.00 0.00 0.00 88 1014.8
20200713085843 55 360 1.0 7.0 0.00 0.00 0.00 88 1014.7
20200713085342 55 252 1.0 7.0 0.00 0.00 0.00 89 1014.8
20200713084840 55 184 2.0 5.0 0.00 0.00 0.00 89 1014.9
20200713084416 55 263 1.0 3.0 0.00 0.00 0.00 89 1014.9
20200713083853 55 360 1.0 3.0 0.00 0.00 0.00 89 1015.1
20200713083342 55 144 2.0 3.0 0.00 0.00 0.00 89 1015.1
20200713082841 55 360 0.0 4.0 0.00 0.00 0.00 89 1015.1
20200713081832 54 207 0.0 3.0 0.00 0.00 0.00 90 1015.2
20200713081350 54 241 1.0 3.0 0.00 0.00 0.00 90 1015.3
20200713080839 54 182 1.0 3.0 0.00 0.00 0.00 90 1015.4
20200713080341 53 178 1.0 2.0 0.00 0.00 0.00 89 1015.5
20200713075831 53 176 1.0 3.0 0.00 0.00 0.00 89 1015.5
20200713075331 53 179 1.0 3.0 0.00 0.00 0.00 89 1015.6
20200713074849 53 170 1.0 3.0 0.00 0.00 0.00 88 1015.8
20200713074340 53 360 1.0 4.0 0.00 0.00 0.00 88 1015.8
20200713073839 53 144 1.0 2.0 0.00 0.00 0.00 88 1015.9
20200713073341 53 145 1.0 2.0 0.00 0.00 0.00 88 1015.8
20200713072841 53 145 1.0 2.0 0.00 0.00 0.00 88 1015.9
20200713072341 53 144 0.0 2.0 0.00 0.00 0.00 88 1015.9
20200713071854 54 145 1.0 2.0 0.00 0.00 0.00 88 1015.9
20200713071345 54 145 1.0 2.0 0.00 0.00 0.00 88 1015.9
20200713070835 54 82 1.0 2.0 0.00 0.00 0.00 88 1016.1
20200713070356 54 70 0.0 2.0 0.00 0.00 0.00 88 1016.0
20200713065839 54 355 0.0 1.0 0.00 0.00 0.00 88 1016.1
20200713065338 54 360 0.0 3.0 0.00 0.00 0.00 88 1016.2
20200713064835 54 355 0.0 2.0 0.00 0.00 0.00 88 1016.3
20200713063835 54 351 0.0 1.0 0.00 0.00 0.00 88 1016.3
20200713063332 54 355 0.0 3.0 0.00 0.00 0.00 89 1016.3
20200713062842 54 351 0.0 3.0 0.00 0.00 0.00 89 1016.4
20200713062340 54 306 0.0 2.0 0.00 0.00 0.00 89 1016.4
20200713061840 55 305 1.0 2.0 0.00 0.00 0.00 89 1016.4
20200713061337 55 360 0.0 3.0 0.00 0.00 0.00 89 1016.4
20200713060836 55 360 1.0 3.0 0.00 0.00 0.00 89 1016.5
20200713060355 55 216 0.0 3.0 0.00 0.00 0.00 89 1016.6
20200713055838 55 203 0.0 1.0 0.00 0.00 0.00 89 1016.6
20200713055331 55 360 0.0 1.0 0.00 0.00 0.00 89 1016.6
20200713054830 56 360 0.0 2.0 0.00 0.00 0.00 89 1016.6
20200713054340 56 360 0.0 3.0 0.00 0.00 0.00 89 1016.6
20200713053835 56 248 1.0 3.0 0.00 0.00 0.00 89 1016.7
20200713053338 56 173 0.0 2.0 0.00 0.00 0.00 89 1016.6
20200713052837 56 18 0.0 2.0 0.00 0.00 0.00 89 1016.6
20200713052353 56 17 1.0 2.0 0.00 0.00 0.00 89 1016.6
20200713051843 57 17 0.0 1.0 0.00 0.00 0.00 89 1016.6
20200713051341 57 17 0.0 2.0 0.00 0.00 0.00 89 1016.6
20200713050838 57 92 0.0 3.0 0.00 0.00 0.00 89 1016.6
20200713050340 57 26 0.0 4.0 0.00 0.00 0.00 89 1016.6
20200713045841 57 360 1.0 4.0 0.00 0.00 0.00 89 1016.6
20200713045354 57 18 1.0 3.0 0.00 0.00 0.00 89 1016.6
20200713044847 57 49 1.0 3.0 0.00 0.00 0.00 89 1016.6
20200713044343 58 30 2.0 4.0 0.00 0.00 0.00 89 1016.5
20200713043838 58 24 2.0 4.0 0.00 0.00 0.00 89 1016.6
20200713043340 58 92 2.0 4.0 0.00 0.00 0.00 89 1016.6
20200713042839 58 74 2.0 5.0 0.00 0.00 0.00 89 1016.5
20200713042339 58 27 3.0 5.0 0.00 0.00 0.00 89 1016.5
20200713041837 58 36 2.0 6.0 0.00 0.00 0.00 89 1016.4
20200713041340 58 331 3.0 6.0 0.00 0.00 0.00 89 1016.5
20200713040835 58 348 3.0 6.0 0.00 0.00 0.00 89 1016.5
20200713040334 58 40 2.0 7.0 0.00 0.00 0.00 89 1016.4
20200713035832 58 40 2.0 7.0 0.00 0.00 0.00 89 1016.5
20200713035333 58 360 2.0 5.0 0.00 0.00 0.00 89 1016.5
20200713034832 58 36 3.0 5.0 0.00 0.00 0.00 89 1016.5
20200713034350 58 82 2.0 5.0 0.00 0.00 0.00 89 1016.7
20200713033839 58 50 3.0 5.0 0.00 0.00 0.00 89 1016.8
20200713033339 58 360 3.0 5.0 0.00 0.00 0.00 89 1016.8
20200713032838 58 5 2.0 5.0 0.00 0.00 0.00 89 1016.9
20200713032340 58 319 2.0 8.0 0.00 0.00 0.00 89 1016.9
20200713031839 59 348 4.0 10.0 0.00 0.00 0.00 88 1017.1
20200713031339 59 338 5.0 11.0 0.00 0.00 0.00 88 1017.1
20200713030837 59 23 4.0 10.0 0.00 0.00 0.00 88 1017.1
20200713030337 59 360 4.0 10.0 0.00 0.00 0.00 88 1017.2
20200713025836 59 21 6.0 10.0 0.00 0.00 0.00 88 1017.3
20200713025338 59 63 5.0 11.0 0.00 0.00 0.00 88 1017.3
20200713024834 59 333 3.0 11.0 0.00 0.00 0.00 88 1017.2
20200713024355 59 9 5.0 12.0 0.00 0.00 0.00 88 1017.1
20200713023843 60 344 5.0 12.0 0.00 0.00 0.00 87 1017.1
20200713023344 60 5 5.0 10.0 0.00 0.00 0.00 87 1017.0